Time;durP1;ratioP1;P1;durP2;ratioP2;P2;SDS_P1;SDS_P2;PMS_P1;PMS_P2;Temp;Humidity;BMP_temperature;BMP_pressure;BME280_temperature;BME280_humidity;BME280_pressure;Samples;Min_cycle;Max_cycle;Signal;HPM_P1;HPM_P2
2021/05/03 00:02:05;;;;;;;3.60;3.13;;;;;;;4.79;75.86;99689.48;126945;1104;100982;-88
2021/05/03 00:04:33;;;;;;;2.80;2.60;;;;;;;4.79;75.83;99687.71;126739;1104;103094;-87
2021/05/03 00:07:00;;;;;;;3.07;2.87;;;;;;;4.81;76.04;99703.52;126807;1104;101981;-86
2021/05/03 00:09:27;;;;;;;2.70;2.50;;;;;;;4.81;75.67;99703.52;127135;1104;102954;-86
2021/05/03 00:11:55;;;;;;;2.45;2.25;;;;;;;4.79;75.66;99706.17;126973;1104;101277;-86
2021/05/03 00:14:22;;;;;;;2.80;2.60;;;;;;;4.80;75.93;99707.07;126745;1104;101767;-86
2021/05/03 00:16:49;;;;;;;4.40;3.50;;;;;;;4.79;75.69;99706.17;126884;1104;103010;-85
2021/05/03 00:19:16;;;;;;;4.80;4.37;;;;;;;4.78;75.51;99708.84;126774;1104;102974;-86
2021/05/03 00:21:43;;;;;;;3.03;2.85;;;;;;;4.80;76.12;99713.20;126793;1104;102965;-87
2021/05/03 00:24:10;;;;;;;3.15;2.95;;;;;;;4.81;75.65;99716.70;126796;1104;103083;-88
2021/05/03 00:26:37;;;;;;;3.83;3.43;;;;;;;4.81;76.24;99714.95;126806;1104;103003;-88
2021/05/03 00:29:04;;;;;;;3.95;3.65;;;;;;;4.81;76.53;99733.42;126554;1104;102768;-88
2021/05/03 00:31:31;;;;;;;3.77;3.47;;;;;;;4.80;76.46;99729.03;127208;1104;102437;-86
2021/05/03 00:33:58;;;;;;;3.80;3.50;;;;;;;4.83;76.50;99722.84;126723;1104;101559;-88
2021/05/03 00:36:40;;;;;;;3.85;3.55;;;;;;;4.87;76.16;99731.59;127254;1104;101328;-87
2021/05/03 00:39:09;;;;;;;7.93;3.90;;;;;;;4.88;76.07;99733.32;126494;1107;103176;-87
2021/05/03 00:41:36;;;;;;;4.87;4.47;;;;;;;4.85;76.29;99740.40;126930;1104;102625;-85
2021/05/03 00:44:04;;;;;;;4.95;4.05;;;;;;;4.90;76.11;99736.83;126204;1107;102952;-88
2021/05/03 00:46:31;;;;;;;4.23;3.93;;;;;;;4.89;76.17;99743.84;126787;1107;102975;-87
2021/05/03 00:48:59;;;;;;;4.58;4.18;;;;;;;4.89;76.45;99751.77;126656;1105;102479;-88
2021/05/03 00:51:26;;;;;;;4.70;4.30;;;;;;;4.88;76.21;99747.41;127143;1105;103502;-86
2021/05/03 00:53:53;;;;;;;3.83;3.53;;;;;;;4.89;76.04;99750.91;127377;1107;102121;-87
2021/05/03 00:56:20;;;;;;;4.37;4.07;;;;;;;4.91;75.95;99752.63;126367;1107;103113;-87
2021/05/03 00:58:47;;;;;;;4.90;4.57;;;;;;;4.95;75.94;99751.69;126581;1105;103129;-87
2021/05/03 01:01:14;;;;;;;4.90;4.50;;;;;;;4.98;75.88;99754.28;126779;1105;101211;-88
2021/05/03 01:03:41;;;;;;;4.20;3.90;;;;;;;5.00;75.62;99756.92;127107;1107;102963;-88
2021/05/03 01:06:08;;;;;;;3.83;3.53;;;;;;;5.03;76.18;99748.95;126436;1108;103198;-86
2021/05/03 01:08:36;;;;;;;4.35;4.05;;;;;;;5.10;75.42;99758.52;126708;1107;102997;-86
2021/05/03 01:11:02;;;;;;;4.15;3.85;;;;;;;5.08;75.30;99762.95;126427;1105;102971;-87
2021/05/03 01:13:37;;;;;;;4.55;4.15;;;;;;;5.03;75.32;99770.06;126859;1105;102989;-87
2021/05/03 01:16:04;;;;;;;3.83;3.53;;;;;;;4.98;75.14;99762.19;126753;1104;101839;-86
2021/05/03 01:18:35;;;;;;;4.88;3.98;;;;;;;4.98;75.04;99770.11;127192;1104;103125;-87
2021/05/03 01:21:03;;;;;;;5.98;4.20;;;;;;;4.99;74.79;99773.64;126633;1096;103479;-86
2021/05/03 01:23:31;;;;;;;4.40;4.03;;;;;;;5.01;75.05;99785.03;126829;1104;101727;-85
2021/05/03 01:26:12;;;;;;;4.25;3.95;;;;;;;4.95;74.91;99783.36;126701;1104;103516;-86
2021/05/03 01:28:40;;;;;;;4.40;4.00;;;;;;;4.96;75.17;99781.61;127108;1104;101920;-86
2021/05/03 01:31:22;;;;;;;4.27;3.90;;;;;;;4.99;74.59;99785.06;126528;1107;102811;-86
2021/05/03 01:33:49;;;;;;;4.20;3.80;;;;;;;5.03;74.62;99791.17;127054;1104;102881;-85
2021/05/03 01:36:16;;;;;;;4.30;3.93;;;;;;;5.03;74.66;99789.39;126771;1107;103029;-86
2021/05/03 01:38:43;;;;;;;4.20;3.83;;;;;;;5.02;74.75;99797.34;126519;1104;103120;-86
2021/05/03 01:41:11;;;;;;;3.45;3.15;;;;;;;5.01;74.25;99801.75;126672;1107;101382;-86
2021/05/03 01:43:38;;;;;;;4.13;3.50;;;;;;;5.01;74.80;99798.22;126950;1105;102138;-87
2021/05/03 01:46:07;;;;;;;4.80;4.40;;;;;;;5.02;74.60;99800.88;126670;1105;101940;-87
2021/05/03 01:48:47;;;;;;;3.83;3.53;;;;;;;5.03;74.95;99805.23;126299;1107;103282;-87
2021/05/03 01:51:27;;;;;;;3.80;3.50;;;;;;;5.03;74.88;99805.23;127174;1107;101945;-87
2021/05/03 01:54:28;;;;;;;4.07;3.60;;;;;;;5.07;74.74;99816.63;126590;1100;103000;-87
2021/05/03 01:56:55;;;;;;;4.43;3.73;;;;;;;5.09;74.82;99806.94;127110;1105;102887;-87
2021/05/03 01:59:30;;;;;;;5.17;4.77;;;;;;;5.06;74.93;99822.80;127432;1105;101273;-88
2021/05/03 02:01:57;;;;;;;3.80;3.50;;;;;;;5.02;75.35;99818.45;126786;1105;102959;-88
2021/05/03 02:04:24;;;;;;;4.63;3.85;;;;;;;5.01;75.04;99827.25;126341;1107;103196;-87
2021/05/03 02:06:53;;;;;;;4.78;4.38;;;;;;;5.03;75.47;99828.98;126760;1108;101654;-87
2021/05/03 02:09:21;;;;;;;6.00;5.50;;;;;;;5.05;75.06;99826.32;126900;1104;101973;-88
2021/05/03 02:11:48;;;;;;;5.77;3.97;;;;;;;5.07;75.32;99832.47;126937;1104;102006;-87
2021/05/03 02:14:16;;;;;;;5.90;4.93;;;;;;;5.08;75.60;99831.58;126988;1104;102005;-87
2021/05/03 02:16:43;;;;;;;5.25;4.10;;;;;;;5.09;75.12;99830.70;127094;1104;102981;-87
2021/05/03 02:19:31;;;;;;;4.48;4.10;;;;;;;5.09;75.15;99835.08;126847;1104;102955;-87
2021/05/03 02:21:58;;;;;;;5.10;4.65;;;;;;;5.10;75.40;99842.97;127025;1104;103083;-89
2021/05/03 02:24:25;;;;;;;4.13;3.78;;;;;;;5.09;75.06;99835.97;127529;1104;101522;-87
2021/05/03 02:26:52;;;;;;;5.33;4.83;;;;;;;5.13;75.11;99849.98;126414;1100;103257;-85
2021/05/03 02:29:20;;;;;;;5.80;4.60;;;;;;;5.10;75.13;99850.03;127432;1104;100934;-87
2021/05/03 02:31:47;;;;;;;5.18;4.65;;;;;;;5.10;75.06;99852.67;127162;1104;102976;-87
2021/05/03 02:34:15;;;;;;;4.63;4.20;;;;;;;5.14;75.30;99857.02;126798;1104;102956;-87
2021/05/03 02:36:42;;;;;;;6.03;5.30;;;;;;;5.18;74.77;99856.97;126855;1104;102949;-88
2021/05/03 02:39:09;;;;;;;5.25;4.65;;;;;;;5.19;74.79;99866.61;127548;1104;101227;-88
2021/05/03 02:41:37;;;;;;;7.67;4.60;;;;;;;5.14;74.50;99857.88;126722;1097;102948;-87
2021/05/03 02:44:32;;;;;;;6.38;4.23;;;;;;;5.13;74.30;99861.43;126641;1105;103077;-87
2021/05/03 02:46:59;;;;;;;4.88;4.43;;;;;;;5.14;74.81;99872.85;126944;1104;102787;-87
2021/05/03 02:49:27;;;;;;;4.43;4.03;;;;;;;5.16;74.26;99869.30;126873;1104;103008;-88
2021/05/03 02:52:10;;;;;;;5.75;3.98;;;;;;;5.12;74.35;99888.71;126637;1104;102977;-87
2021/05/03 02:54:38;;;;;;;6.70;4.80;;;;;;;5.13;74.38;99884.30;126711;1104;102979;-87
2021/05/03 02:57:06;;;;;;;6.73;6.03;;;;;;;5.12;74.64;99888.71;126992;1104;102358;-87
2021/05/03 02:59:37;;;;;;;4.30;3.90;;;;;;;5.13;73.89;99894.85;126698;1104;103120;-88
2021/05/03 03:02:04;;;;;;;5.57;4.23;;;;;;;5.14;73.92;99899.25;127106;1104;102309;-86
2021/05/03 03:04:31;;;;;;;4.48;4.08;;;;;;;5.11;73.98;99897.52;126778;1104;103010;-87
2021/05/03 03:06:58;;;;;;;7.70;5.03;;;;;;;5.13;74.44;99898.39;126643;1104;102932;-86
2021/05/03 03:09:27;;;;;;;5.00;4.60;;;;;;;5.09;74.23;99901.95;126638;1104;103105;-87
2021/05/03 03:11:58;;;;;;;4.40;4.10;;;;;;;5.11;74.57;99915.13;126791;1104;102983;-86
2021/05/03 03:14:41;;;;;;;6.45;4.30;;;;;;;5.10;74.28;99916.88;126773;1104;102759;-87
2021/05/03 03:17:09;;;;;;;4.53;4.13;;;;;;;5.09;74.24;99911.63;127066;1104;102745;-87
2021/05/03 03:19:45;;;;;;;4.77;4.30;;;;;;;5.09;74.41;99920.44;126752;1104;103104;-88
2021/05/03 03:22:20;;;;;;;4.78;4.38;;;;;;;5.10;74.55;99923.94;126666;1101;102630;-86
2021/05/03 03:24:48;;;;;;;5.85;4.00;;;;;;;5.09;74.17;99927.45;126757;1104;102032;-87
2021/05/03 03:27:16;;;;;;;4.58;4.20;;;;;;;5.08;74.04;99933.63;126566;1104;103126;-87
2021/05/03 03:29:44;;;;;;;5.40;4.18;;;;;;;5.05;74.69;99926.61;126777;1104;103045;-89
2021/05/03 03:32:11;;;;;;;5.05;4.55;;;;;;;5.08;74.41;99936.27;126447;1104;103074;-87
2021/05/03 03:34:38;;;;;;;4.75;3.95;;;;;;;5.12;74.24;99940.64;126769;1104;103081;-88
2021/05/03 03:37:13;;;;;;;5.88;3.93;;;;;;;5.12;73.95;99938.00;126652;1104;101985;-87
2021/05/03 03:39:45;;;;;;;4.53;4.23;;;;;;;5.13;74.53;99942.36;127134;1104;103134;-87
2021/05/03 03:42:13;;;;;;;3.95;3.65;;;;;;;5.15;74.01;99953.80;127048;1104;103031;-87
2021/05/03 03:44:41;;;;;;;4.00;3.70;;;;;;;5.18;73.98;99959.03;126751;1104;103016;-86
2021/05/03 03:47:08;;;;;;;4.60;4.17;;;;;;;5.17;73.83;99958.17;126418;1098;103045;-87
2021/05/03 03:49:36;;;;;;;4.13;3.70;;;;;;;5.14;73.93;99958.18;126745;1104;103039;-87
2021/05/03 03:52:03;;;;;;;3.60;3.30;;;;;;;5.11;73.99;99955.58;126605;1104;102939;-87
2021/05/03 03:54:30;;;;;;;4.53;3.60;;;;;;;5.11;73.92;99973.20;127421;1104;101993;-87
2021/05/03 03:56:57;;;;;;;3.90;3.53;;;;;;;5.13;73.63;99967.02;127146;1104;103125;-88
2021/05/03 03:59:25;;;;;;;4.23;3.93;;;;;;;5.19;74.00;99976.63;127233;1104;102953;-88
2021/05/03 04:01:52;;;;;;;4.37;3.60;;;;;;;5.17;73.12;99978.39;127266;1103;102987;-88
2021/05/03 04:04:24;;;;;;;5.07;4.40;;;;;;;5.18;73.17;99977.51;127599;1104;101225;-87
2021/05/03 04:09:32;;;;;;;10.75;4.05;;;;;;;5.27;72.53;99989.75;127618;1104;101309;-86
2021/05/03 04:28:04;;;;;;;3.43;3.13;;;;;;;5.38;71.53;99989.62;127630;1104;101310;-87
2021/05/03 04:30:34;;;;;;;3.58;3.28;;;;;;;5.39;71.79;99997.52;127597;1104;101592;-88
2021/05/03 04:33:05;;;;;;;3.60;3.30;;;;;;;5.43;71.69;99998.37;127631;1104;101094;-89
2021/05/03 04:35:38;;;;;;;4.18;3.80;;;;;;;5.47;71.67;100000.08;127489;1104;103562;-87
2021/05/03 04:38:05;;;;;;;4.13;3.83;;;;;;;5.46;70.91;99999.18;127482;1104;102944;-88
2021/05/03 04:40:33;;;;;;;4.53;3.28;;;;;;;5.47;71.31;100006.22;127456;1104;101302;-88
2021/05/03 04:43:01;;;;;;;4.00;3.70;;;;;;;5.57;70.95;100006.11;127042;1104;101896;-88
2021/05/03 04:45:28;;;;;;;3.93;3.47;;;;;;;5.63;71.11;100013.97;127497;1104;101038;-88
2021/05/03 04:47:55;;;;;;;3.50;3.27;;;;;;;5.64;70.82;100019.23;126962;1104;101790;-87
2021/05/03 04:50:38;;;;;;;3.50;3.20;;;;;;;5.65;70.53;100022.73;127342;1104;101089;-89
2021/05/03 04:53:28;;;;;;;3.90;3.50;;;;;;;5.64;70.53;100026.30;126669;1104;103125;-87
2021/05/03 04:56:00;;;;;;;4.10;3.40;;;;;;;5.71;70.66;100020.03;127051;1097;101987;-89
2021/05/03 04:58:42;;;;;;;4.45;3.30;;;;;;;5.77;70.35;100027.00;127274;1104;102950;-88
2021/05/03 05:01:09;;;;;;;3.88;3.50;;;;;;;5.77;69.95;100027.89;126280;1097;103155;-88
2021/05/03 05:03:36;;;;;;;4.17;3.80;;;;;;;5.77;70.55;100029.64;127315;1104;101111;-88
2021/05/03 05:06:04;;;;;;;3.90;3.40;;;;;;;5.84;70.76;100031.33;127606;1104;101122;-88
2021/05/03 05:08:31;;;;;;;4.43;4.07;;;;;;;5.89;70.14;100040.08;127367;1105;103014;-88
2021/05/03 05:10:59;;;;;;;4.17;3.77;;;;;;;5.90;70.06;100036.52;126725;1104;102000;-87
2021/05/03 05:13:26;;;;;;;4.25;3.90;;;;;;;5.90;69.94;100027.72;127393;1104;102569;-88
2021/05/03 05:15:53;;;;;;;4.80;4.30;;;;;;;5.89;70.14;100044.47;126406;1104;101708;-88
2021/05/03 05:18:23;;;;;;;5.20;3.63;;;;;;;5.93;69.78;100041.78;127248;1104;101498;-89
2021/05/03 05:20:50;;;;;;;4.43;4.03;;;;;;;5.98;70.09;100045.24;127307;1104;102736;-88
2021/05/03 05:23:18;;;;;;;4.67;4.27;;;;;;;6.06;70.33;100054.86;127366;1104;101332;-89
2021/05/03 05:25:44;;;;;;;5.07;4.57;;;;;;;6.13;70.27;100059.16;127587;1104;102588;-88
2021/05/03 05:28:27;;;;;;;4.30;3.93;;;;;;;6.17;70.15;100058.22;127467;1105;100811;-89
2021/05/03 05:30:54;;;;;;;4.63;4.20;;;;;;;6.26;70.08;100049.30;127467;1105;101259;-89
2021/05/03 05:33:37;;;;;;;13.60;5.00;;;;;;;6.34;69.80;100047.41;126945;1105;101998;-88
2021/05/03 05:36:05;;;;;;;6.07;5.47;;;;;;;6.39;69.51;100050.86;126311;1105;103975;-88
2021/05/03 05:38:35;;;;;;;5.10;4.57;;;;;;;6.43;68.76;100057.85;127196;1105;103123;-87
2021/05/03 05:41:03;;;;;;;5.20;4.67;;;;;;;6.45;68.61;100058.72;127441;1106;101019;-88
2021/05/03 05:43:30;;;;;;;5.60;4.03;;;;;;;6.51;68.14;100057.74;127571;1104;101203;-88
2021/05/03 05:45:57;;;;;;;4.63;4.08;;;;;;;6.56;67.95;100069.13;127543;1104;101098;-88
2021/05/03 05:48:24;;;;;;;4.83;4.43;;;;;;;6.59;68.12;100069.08;127443;1106;100934;-88
2021/05/03 05:50:52;;;;;;;5.37;4.10;;;;;;;6.64;68.03;100075.17;127482;1105;101124;-88
2021/05/03 05:53:19;;;;;;;6.63;4.77;;;;;;;6.71;67.61;100072.45;127079;1107;100977;-88
2021/05/03 05:55:47;;;;;;;5.13;4.10;;;;;;;6.73;68.02;100073.28;126966;1104;103209;-88
2021/05/03 05:58:32;;;;;;;5.03;4.30;;;;;;;6.82;67.55;100075.78;127027;1104;103026;-87
2021/05/03 06:01:13;;;;;;;6.50;4.87;;;;;;;6.92;67.73;100081.78;126463;1104;103062;-88
2021/05/03 06:03:55;;;;;;;6.57;4.83;;;;;;;6.94;66.99;100080.00;127346;1105;101250;-88
2021/05/03 06:06:25;;;;;;;13.53;5.08;;;;;;;6.96;66.66;100073.78;126815;1104;102955;-87
2021/05/03 06:08:52;;;;;;;4.87;4.27;;;;;;;6.96;66.30;100079.08;126827;1104;103027;-89
2021/05/03 06:11:19;;;;;;;5.60;4.50;;;;;;;7.03;66.62;100087.80;127628;1104;100981;-87
2021/05/03 06:14:00;;;;;;;5.33;4.38;;;;;;;7.08;66.59;100093.00;127592;1104;101200;-87
2021/05/03 06:16:27;;;;;;;4.93;4.13;;;;;;;7.10;66.27;100089.42;127174;1104;103008;-88
2021/05/03 06:18:55;;;;;;;4.50;4.10;;;;;;;7.17;66.81;100101.68;127590;1104;100986;-88
2021/05/03 06:21:22;;;;;;;4.40;3.80;;;;;;;7.27;66.53;100090.92;127262;1104;102754;-89
2021/05/03 06:23:49;;;;;;;4.70;4.20;;;;;;;7.31;66.43;100097.91;127508;1104;102414;-90
2021/05/03 06:26:17;;;;;;;5.40;4.77;;;;;;;7.47;66.10;100103.81;126366;1104;103139;-88
2021/05/03 06:28:44;;;;;;;4.83;4.28;;;;;;;7.48;65.14;100105.56;127390;1104;101387;-88
2021/05/03 06:31:19;;;;;;;9.97;4.83;;;;;;;7.47;65.11;100111.76;127104;1104;103013;-89
2021/05/03 06:33:47;;;;;;;6.00;4.55;;;;;;;7.52;65.31;100112.55;127297;1097;101130;-87
2021/05/03 06:36:16;;;;;;;5.77;4.77;;;;;;;7.48;65.51;100114.38;126691;1104;103111;-88
2021/05/03 06:38:43;;;;;;;6.65;4.73;;;;;;;7.42;65.36;100117.13;127009;1104;101591;-89
2021/05/03 06:41:10;;;;;;;4.83;4.23;;;;;;;7.38;65.33;100117.22;127405;1105;101281;-89
2021/05/03 06:43:37;;;;;;;4.53;4.10;;;;;;;7.42;65.44;100129.51;127318;1104;101232;-87
2021/05/03 06:46:11;;;;;;;5.15;4.65;;;;;;;7.43;64.81;100132.13;127287;1104;102771;-89
2021/05/03 06:48:38;;;;;;;4.53;3.95;;;;;;;7.38;63.93;100126.03;127236;1104;101770;-89
2021/05/03 06:51:05;;;;;;;4.87;4.17;;;;;;;7.42;63.93;100140.97;127398;1104;101347;-89
2021/05/03 06:53:46;;;;;;;6.90;3.25;;;;;;;7.35;61.14;100145.50;126846;1104;102180;-89
2021/05/03 06:56:13;;;;;;;4.93;3.70;;;;;;;7.34;59.99;100142.88;127303;1104;102126;-89
2021/05/03 06:58:41;;;;;;;3.05;2.85;;;;;;;7.36;59.13;100151.69;127246;1104;103091;-86
2021/05/03 07:01:09;;;;;;;4.70;3.05;;;;;;;7.38;60.19;100155.17;127124;1104;103093;-88
2021/05/03 07:03:37;;;;;;;4.50;3.50;;;;;;;7.39;61.12;100143.68;127059;1104;102964;-88
2021/05/03 07:06:04;;;;;;;6.47;4.77;;;;;;;7.50;61.27;100147.03;127311;1104;102952;-88
2021/05/03 07:08:37;;;;;;;4.07;3.00;;;;;;;7.64;60.16;100143.26;126967;1101;103038;-87
2021/05/03 07:11:12;;;;;;;3.48;3.13;;;;;;;7.67;57.44;100149.35;127567;1104;100936;-89
2021/05/03 07:13:39;;;;;;;3.43;3.10;;;;;;;7.64;55.81;100146.77;126488;1097;103212;-88
2021/05/03 07:16:06;;;;;;;3.53;2.87;;;;;;;7.64;54.86;100146.77;127233;1104;101043;-88
2021/05/03 07:18:34;;;;;;;5.50;2.67;;;;;;;7.74;55.91;100158.06;126959;1104;103166;-87
2021/05/03 07:21:01;;;;;;;2.87;2.67;;;;;;;7.74;54.74;100147.46;127020;1104;101108;-88
2021/05/03 07:23:47;;;;;;;3.70;2.95;;;;;;;7.79;54.96;100148.25;126920;1104;101125;-87
2021/05/03 07:26:15;;;;;;;2.70;2.50;;;;;;;7.87;54.89;100138.37;127120;1104;102514;-88
2021/05/03 07:28:42;;;;;;;4.67;3.40;;;;;;;7.98;54.69;100147.90;127248;1104;101201;-88
2021/05/03 07:31:09;;;;;;;4.78;4.28;;;;;;;8.07;54.19;100155.67;126878;1104;102973;-86
2021/05/03 07:33:36;;;;;;;3.90;3.10;;;;;;;8.14;54.67;100152.02;126961;1104;102973;-87
2021/05/03 07:36:10;;;;;;;3.13;2.83;;;;;;;8.23;53.77;100150.07;127616;1104;101058;-88
2021/05/03 07:38:37;;;;;;;3.58;3.18;;;;;;;8.24;52.89;100154.45;127423;1104;101458;-88
2021/05/03 07:41:06;;;;;;;4.40;3.93;;;;;;;8.28;51.94;100145.55;126518;1104;102925;-92
2021/05/03 07:43:35;;;;;;;2.67;2.37;;;;;;;8.35;52.80;100152.45;127443;1104;103122;-89
2021/05/03 07:46:05;;;;;;;3.35;3.05;;;;;;;8.49;52.99;100165.45;127496;1104;102691;-88
2021/05/03 07:48:32;;;;;;;5.05;3.65;;;;;;;8.61;52.45;100161.66;126882;1104;102953;-86
2021/05/03 07:50:59;;;;;;;4.47;3.80;;;;;;;8.66;53.01;100160.67;127354;1105;103128;-87
2021/05/03 07:53:26;;;;;;;3.47;3.17;;;;;;;8.68;52.21;100165.94;126898;1104;102980;-87
2021/05/03 07:55:53;;;;;;;2.87;2.57;;;;;;;8.71;50.37;100171.17;126920;1104;103041;-88
2021/05/03 07:58:20;;;;;;;3.53;3.23;;;;;;;8.74;51.68;100172.89;126735;1101;103263;-87
2021/05/03 08:00:49;;;;;;;3.03;2.73;;;;;;;8.73;51.67;100179.09;127094;1104;103051;-86
2021/05/03 08:03:17;;;;;;;3.57;3.27;;;;;;;8.68;51.10;100185.39;127572;1104;101277;-87
2021/05/03 08:05:45;;;;;;;3.25;2.60;;;;;;;8.61;52.11;100191.75;126794;1104;103045;-87
2021/05/03 08:08:12;;;;;;;3.47;3.17;;;;;;;8.63;51.69;100189.06;127110;1102;102980;-85
2021/05/03 08:10:39;;;;;;;4.10;2.37;;;;;;;8.64;51.61;100201.43;126633;1104;103001;-85
2021/05/03 08:13:07;;;;;;;2.30;2.10;;;;;;;8.61;49.41;100198.82;127180;1104;103536;-87
2021/05/03 08:15:35;;;;;;;5.20;2.80;;;;;;;8.59;48.83;100190.89;127263;1104;101127;-86
2021/05/03 08:18:04;;;;;;;2.80;2.60;;;;;;;8.60;49.05;100213.03;127015;1104;103118;-86
2021/05/03 08:20:31;;;;;;;2.47;2.00;;;;;;;8.57;50.18;100215.72;127130;1104;102991;-88
2021/05/03 08:22:59;;;;;;;4.57;2.50;;;;;;;8.56;49.55;100212.20;127503;1104;101621;-86
2021/05/03 08:25:26;;;;;;;3.50;2.90;;;;;;;8.55;49.99;100212.24;126620;1104;102974;-86
2021/05/03 08:27:56;;;;;;;2.83;2.33;;;;;;;8.56;49.91;100213.97;127185;1104;101713;-88
2021/05/03 08:30:23;;;;;;;3.50;2.50;;;;;;;8.58;50.59;100215.69;127402;1104;101244;-89
2021/05/03 08:33:01;;;;;;;2.20;2.03;;;;;;;8.68;51.08;100217.25;127178;1104;102883;-86
2021/05/03 08:35:31;;;;;;;3.23;2.50;;;;;;;8.82;49.66;100216.97;127530;1104;101221;-86
2021/05/03 08:38:03;;;;;;;3.00;2.25;;;;;;;8.99;49.21;100228.98;126896;1104;102388;-88
2021/05/03 08:40:33;;;;;;;2.80;2.50;;;;;;;9.06;49.13;100217.30;127416;1104;101283;-87
2021/05/03 08:43:17;;;;;;;3.78;2.53;;;;;;;9.14;47.88;100222.44;127189;1104;101202;-85
2021/05/03 08:45:48;;;;;;;2.38;2.18;;;;;;;9.38;48.80;100228.95;127577;1104;101337;-90
2021/05/03 08:48:25;;;;;;;3.33;2.53;;;;;;;9.99;48.80;100229.17;127223;1104;102941;-85
2021/05/03 08:51:03;;;;;;;2.50;2.30;;;;;;;10.15;45.88;100232.29;127618;1103;101075;-86
2021/05/03 08:53:43;;;;;;;3.38;2.40;;;;;;;10.29;46.42;100231.03;127599;1104;100983;-87
2021/05/03 08:56:26;;;;;;;2.68;1.95;;;;;;;10.39;45.00;100221.91;126797;1104;102986;-90
2021/05/03 08:58:59;;;;;;;2.93;2.37;;;;;;;10.60;46.39;100232.88;127304;1104;103122;-87
2021/05/03 09:01:31;;;;;;;2.80;2.03;;;;;;;10.76;45.51;100241.30;127581;1104;100783;-86
2021/05/03 09:03:59;;;;;;;2.73;2.20;;;;;;;10.89;46.34;100234.68;127553;1104;101053;-86
2021/05/03 09:06:28;;;;;;;2.58;2.33;;;;;;;10.99;46.42;100241.45;127009;1104;102457;-86
2021/05/03 09:09:13;;;;;;;3.40;2.30;;;;;;;11.47;45.24;100223.95;127540;1104;101374;-89
2021/05/03 09:11:58;;;;;;;4.38;2.48;;;;;;;11.48;43.88;100232.84;127583;1104;101243;-87
2021/05/03 09:14:26;;;;;;;3.08;1.93;;;;;;;11.50;43.42;100225.64;127471;1104;101135;-90
2021/05/03 09:16:54;;;;;;;2.70;2.20;;;;;;;11.42;42.47;100228.55;127448;1104;101220;-88
2021/05/03 09:19:27;;;;;;;2.83;2.43;;;;;;;11.35;42.53;100235.02;126708;1104;103116;-90
2021/05/03 09:21:55;;;;;;;2.20;1.70;;;;;;;11.25;43.23;100244.23;127388;1104;100994;-86
2021/05/03 09:24:34;;;;;;;2.30;2.20;;;;;;;11.42;44.40;100241.02;127251;1104;101434;-86
2021/05/03 09:27:06;;;;;;;3.80;2.20;;;;;;;11.44;44.07;100236.53;127282;1104;103014;-87
2021/05/03 09:29:45;;;;;;;2.55;2.35;;;;;;;11.27;43.58;100245.92;126771;1104;102020;-91
2021/05/03 09:32:20;;;;;;;3.70;2.33;;;;;;;11.06;44.66;100257.27;127392;1104;102976;-86
2021/05/03 09:34:55;;;;;;;3.08;2.20;;;;;;;10.76;44.71;100259.94;126964;1104;102890;-86
2021/05/03 09:37:35;;;;;;;3.90;2.60;;;;;;;10.53;45.08;100256.16;127379;1104;103126;-84
2021/05/03 09:40:23;;;;;;;5.13;2.93;;;;;;;10.36;46.62;100264.61;127387;1104;101356;-88
2021/05/03 09:43:11;;;;;;;3.15;2.85;;;;;;;10.15;47.56;100264.23;127626;1104;101394;-88
2021/05/03 09:45:49;;;;;;;3.20;2.90;;;;;;;10.14;47.33;100267.83;127559;1104;101939;-87
2021/05/03 09:48:30;;;;;;;2.83;2.63;;;;;;;10.23;47.84;100265.83;127451;1104;102948;-86
2021/05/03 09:51:13;;;;;;;3.33;3.00;;;;;;;10.25;47.91;100267.53;126916;1095;103062;-87
2021/05/03 09:54:29;;;;;;;3.50;3.20;;;;;;;10.31;47.21;100261.16;126666;1104;102761;-83
2021/05/03 09:57:14;;;;;;;4.30;3.60;;;;;;;10.18;48.70;100266.83;126442;1104;103158;-89
2021/05/03 09:59:52;;;;;;;3.40;3.10;;;;;;;10.03;48.35;100269.88;126716;1104;102945;-85
2021/05/03 10:02:46;;;;;;;4.43;4.03;;;;;;;10.07;48.87;100268.88;126849;1104;102971;-89
2021/05/03 10:05:28;;;;;;;14.67;12.33;;;;;;;10.64;47.91;100277.15;127046;1105;102949;-88
2021/05/03 10:07:55;;;;;;;6.35;5.68;;;;;;;10.53;47.06;100272.99;127289;1104;102953;-87
2021/05/03 10:10:30;;;;;;;8.13;7.30;;;;;;;10.66;47.70;100276.19;127087;1104;101971;-87
2021/05/03 10:12:58;;;;;;;4.35;4.03;;;;;;;11.14;46.87;100274.78;126613;1105;103005;-87
2021/05/03 10:15:26;;;;;;;5.27;4.80;;;;;;;11.09;46.48;100274.05;126762;1104;102972;-87
2021/05/03 10:17:55;;;;;;;4.05;3.65;;;;;;;10.95;46.21;100278.91;126778;1105;101594;-86
2021/05/03 10:20:22;;;;;;;5.58;4.68;;;;;;;10.80;47.27;100289.09;126607;1105;103296;-86
2021/05/03 10:22:53;;;;;;;6.27;5.43;;;;;;;10.58;47.39;100286.16;126691;1104;102074;-86
2021/05/03 10:25:21;;;;;;;4.48;4.08;;;;;;;10.33;48.77;100283.27;126449;1105;102961;-87
2021/05/03 10:27:50;;;;;;;3.07;2.77;;;;;;;10.01;50.86;100290.35;126743;1105;102134;-86
2021/05/03 10:30:20;;;;;;;4.33;3.70;;;;;;;9.83;52.03;100289.88;126854;1105;102046;-87
2021/05/03 10:33:09;;;;;;;3.98;3.45;;;;;;;9.82;54.04;100293.48;127163;1105;101036;-87
2021/05/03 10:35:47;;;;;;;3.30;3.00;;;;;;;9.79;53.66;100296.19;126740;1105;103120;-86
2021/05/03 10:38:42;;;;;;;4.05;3.65;;;;;;;9.68;53.37;100291.14;126355;1105;102999;-87
2021/05/03 10:41:32;;;;;;;4.35;3.75;;;;;;;9.68;54.30;100292.94;126840;1097;102972;-87
2021/05/03 10:44:23;;;;;;;6.28;4.20;;;;;;;9.63;53.55;100290.38;126846;1104;102708;-86
2021/05/03 10:47:01;;;;;;;5.38;4.03;;;;;;;9.71;53.06;100292.85;126681;1104;102886;-86
2021/05/03 10:49:46;;;;;;;6.80;4.55;;;;;;;9.72;51.12;100291.95;126768;1104;102902;-87
2021/05/03 10:52:32;;;;;;;3.80;3.48;;;;;;;9.65;52.26;100300.97;126714;1104;102789;-87
2021/05/03 10:54:59;;;;;;;3.85;3.40;;;;;;;9.65;53.42;100311.60;126846;1104;103090;-86
2021/05/03 10:57:26;;;;;;;6.53;5.23;;;;;;;9.84;54.25;100304.94;127169;1104;103129;-87
2021/05/03 10:59:56;;;;;;;4.08;3.63;;;;;;;9.93;53.72;100301.18;126905;1104;103136;-86
2021/05/03 11:02:45;;;;;;;5.17;3.50;;;;;;;9.74;54.14;100319.36;127489;1104;102542;-85
2021/05/03 11:05:41;;;;;;;4.75;3.53;;;;;;;9.52;56.31;100322.53;126400;1107;102832;-88
2021/05/03 11:08:13;;;;;;;5.40;4.97;;;;;;;9.33;57.01;100329.17;126497;1107;102948;-87
2021/05/03 11:11:07;;;;;;;11.23;4.00;;;;;;;9.16;57.62;100329.56;126801;1105;103151;-87
2021/05/03 11:13:36;;;;;;;3.70;3.23;;;;;;;9.18;58.36;100327.73;126696;1105;103022;-87
2021/05/03 11:16:31;;;;;;;4.33;3.37;;;;;;;9.29;58.38;100320.41;126454;1107;103474;-87
2021/05/03 11:19:34;;;;;;;9.27;3.33;;;;;;;9.48;57.19;100323.52;126796;1104;101581;-88
2021/05/03 11:22:03;;;;;;;4.58;4.18;;;;;;;9.58;55.94;100324.17;126809;1107;102944;-89
2021/05/03 11:24:51;;;;;;;10.13;9.20;;;;;;;9.68;56.84;100325.70;127007;1107;101667;-83
2021/05/03 11:27:27;;;;;;;5.27;4.87;;;;;;;9.75;53.22;100325.57;126664;1107;103044;-85
2021/05/03 11:30:22;;;;;;;4.43;2.97;;;;;;;9.86;53.59;100331.48;126511;1107;101795;-85
2021/05/03 11:32:55;;;;;;;2.63;2.43;;;;;;;10.16;51.55;100331.65;126944;1108;103129;-86
2021/05/03 11:35:41;;;;;;;4.23;3.30;;;;;;;10.38;50.39;100318.66;126600;1107;102951;-86
2021/05/03 11:38:29;;;;;;;4.30;3.20;;;;;;;10.40;48.99;100322.17;126738;1107;102924;-85
2021/05/03 11:41:16;;;;;;;3.58;3.28;;;;;;;10.41;48.69;100323.03;126594;1107;103256;-87
2021/05/03 11:46:56;;;;;;;3.73;3.25;;;;;;;10.47;48.43;100328.20;126367;1104;102974;-86
2021/05/03 11:49:17;;;;;;;5.00;4.07;;;;;;;10.47;50.07;100333.53;126666;1104;101336;-85
2021/05/03 11:51:57;;;;;;;3.90;3.57;;;;;;;10.46;49.78;100340.66;126665;1104;102169;-86
2021/05/03 11:54:46;;;;;;;4.58;4.00;;;;;;;10.42;50.01;100343.42;126890;1104;103473;-85
2021/05/03 11:57:31;;;;;;;5.37;3.67;;;;;;;10.38;51.35;100339.96;126740;1104;102424;-87
2021/05/03 12:00:01;;;;;;;4.90;4.43;;;;;;;10.37;51.27;100340.90;126957;1097;102969;-86
2021/05/03 12:02:55;;;;;;;5.48;4.90;;;;;;;10.24;50.43;100334.98;126992;1104;102955;-86
2021/05/03 12:05:22;;;;;;;6.60;5.43;;;;;;;10.17;50.19;100336.92;126648;1104;102997;-84